sensor_id;sensor_type;location;lat;lon;timestamp;P1;durP1;ratioP1;P2;durP2;ratioP2
42192;SDS011;52467;40.114;18.306;2023-05-02T00:01:40;8.55;;;1.98;;
42192;SDS011;52467;40.114;18.306;2023-05-02T00:04:07;8.30;;;1.95;;
42192;SDS011;52467;40.114;18.306;2023-05-02T00:06:34;7.28;;;2.20;;
42192;SDS011;52467;40.114;18.306;2023-05-02T00:09:02;7.43;;;1.90;;
42192;SDS011;52467;40.114;18.306;2023-05-02T00:11:29;7.35;;;1.77;;
42192;SDS011;52467;40.114;18.306;2023-05-02T00:13:56;6.65;;;2.13;;
42192;SDS011;52467;40.114;18.306;2023-05-02T00:16:24;6.43;;;2.00;;
42192;SDS011;52467;40.114;18.306;2023-05-02T00:18:51;6.00;;;1.85;;
42192;SDS011;52467;40.114;18.306;2023-05-02T00:21:18;9.18;;;1.90;;
42192;SDS011;52467;40.114;18.306;2023-05-02T00:23:45;11.15;;;2.00;;
42192;SDS011;52467;40.114;18.306;2023-05-02T00:26:13;10.98;;;2.28;;
42192;SDS011;52467;40.114;18.306;2023-05-02T00:28:41;8.80;;;2.33;;
42192;SDS011;52467;40.114;18.306;2023-05-02T00:31:08;10.65;;;2.40;;
42192;SDS011;52467;40.114;18.306;2023-05-02T00:33:36;7.27;;;2.37;;
42192;SDS011;52467;40.114;18.306;2023-05-02T00:36:03;8.93;;;2.50;;
42192;SDS011;52467;40.114;18.306;2023-05-02T00:38:31;15.45;;;2.30;;
42192;SDS011;52467;40.114;18.306;2023-05-02T00:40:58;8.13;;;2.25;;
42192;SDS011;52467;40.114;18.306;2023-05-02T00:43:25;10.98;;;2.30;;
42192;SDS011;52467;40.114;18.306;2023-05-02T00:45:56;6.70;;;1.98;;
42192;SDS011;52467;40.114;18.306;2023-05-02T00:48:24;8.52;;;2.15;;
42192;SDS011;52467;40.114;18.306;2023-05-02T00:50:52;4.90;;;1.85;;
42192;SDS011;52467;40.114;18.306;2023-05-02T00:53:20;6.28;;;2.10;;
42192;SDS011;52467;40.114;18.306;2023-05-02T00:55:47;8.95;;;2.30;;
42192;SDS011;52467;40.114;18.306;2023-05-02T00:58:15;8.93;;;1.88;;
42192;SDS011;52467;40.114;18.306;2023-05-02T01:14:39;5.35;;;2.15;;
42192;SDS011;52467;40.114;18.306;2023-05-02T01:17:10;8.43;;;2.10;;
42192;SDS011;52467;40.114;18.306;2023-05-02T01:19:40;8.18;;;1.90;;
42192;SDS011;52467;40.114;18.306;2023-05-02T01:22:09;4.95;;;2.03;;
42192;SDS011;52467;40.114;18.306;2023-05-02T01:30:17;8.40;;;2.33;;
42192;SDS011;52467;40.114;18.306;2023-05-02T01:32:46;9.20;;;2.10;;
42192;SDS011;52467;40.114;18.306;2023-05-02T01:35:15;8.82;;;1.83;;
42192;SDS011;52467;40.114;18.306;2023-05-02T01:37:44;5.28;;;1.83;;
42192;SDS011;52467;40.114;18.306;2023-05-02T01:40:12;4.72;;;1.67;;
42192;SDS011;52467;40.114;18.306;2023-05-02T01:42:41;6.90;;;2.30;;
42192;SDS011;52467;40.114;18.306;2023-05-02T01:45:11;7.40;;;1.80;;
42192;SDS011;52467;40.114;18.306;2023-05-02T01:47:39;7.80;;;1.98;;
42192;SDS011;52467;40.114;18.306;2023-05-02T01:50:07;8.38;;;2.92;;
42192;SDS011;52467;40.114;18.306;2023-05-02T01:52:35;6.80;;;1.97;;
42192;SDS011;52467;40.114;18.306;2023-05-02T01:55:05;6.43;;;2.30;;
42192;SDS011;52467;40.114;18.306;2023-05-02T01:57:35;12.37;;;2.57;;
42192;SDS011;52467;40.114;18.306;2023-05-02T02:00:05;10.20;;;2.30;;
42192;SDS011;52467;40.114;18.306;2023-05-02T02:02:41;6.35;;;2.50;;
42192;SDS011;52467;40.114;18.306;2023-05-02T02:05:13;10.13;;;2.25;;
42192;SDS011;52467;40.114;18.306;2023-05-02T02:07:41;7.43;;;2.35;;
42192;SDS011;52467;40.114;18.306;2023-05-02T02:10:09;11.35;;;2.80;;
42192;SDS011;52467;40.114;18.306;2023-05-02T02:12:38;12.82;;;2.95;;
42192;SDS011;52467;40.114;18.306;2023-05-02T02:20:23;8.27;;;2.90;;
42192;SDS011;52467;40.114;18.306;2023-05-02T02:22:51;8.83;;;2.63;;
42192;SDS011;52467;40.114;18.306;2023-05-02T02:25:19;9.97;;;2.50;;
42192;SDS011;52467;40.114;18.306;2023-05-02T02:27:46;9.02;;;2.33;;
42192;SDS011;52467;40.114;18.306;2023-05-02T02:30:14;11.32;;;2.65;;
42192;SDS011;52467;40.114;18.306;2023-05-02T02:32:42;6.50;;;2.40;;
42192;SDS011;52467;40.114;18.306;2023-05-02T02:35:09;6.57;;;2.20;;
42192;SDS011;52467;40.114;18.306;2023-05-02T02:37:43;8.20;;;2.40;;
42192;SDS011;52467;40.114;18.306;2023-05-02T02:40:33;6.75;;;2.45;;
42192;SDS011;52467;40.114;18.306;2023-05-02T02:43:43;5.88;;;2.40;;
42192;SDS011;52467;40.114;18.306;2023-05-02T02:48:49;9.32;;;2.40;;
42192;SDS011;52467;40.114;18.306;2023-05-02T02:56:57;8.68;;;2.92;;
42192;SDS011;52467;40.114;18.306;2023-05-02T02:59:37;11.45;;;2.60;;
42192;SDS011;52467;40.114;18.306;2023-05-02T03:02:08;6.07;;;2.37;;
42192;SDS011;52467;40.114;18.306;2023-05-02T03:04:39;8.52;;;2.45;;
42192;SDS011;52467;40.114;18.306;2023-05-02T03:07:07;10.43;;;2.50;;
42192;SDS011;52467;40.114;18.306;2023-05-02T03:12:12;9.35;;;2.20;;
42192;SDS011;52467;40.114;18.306;2023-05-02T03:14:41;8.20;;;2.17;;
42192;SDS011;52467;40.114;18.306;2023-05-02T03:17:10;11.82;;;2.58;;
42192;SDS011;52467;40.114;18.306;2023-05-02T03:19:37;9.70;;;2.20;;
42192;SDS011;52467;40.114;18.306;2023-05-02T03:22:05;8.10;;;2.13;;
42192;SDS011;52467;40.114;18.306;2023-05-02T03:24:34;5.53;;;1.98;;
42192;SDS011;52467;40.114;18.306;2023-05-02T03:27:02;5.78;;;2.03;;
42192;SDS011;52467;40.114;18.306;2023-05-02T03:29:36;8.20;;;2.65;;
42192;SDS011;52467;40.114;18.306;2023-05-02T03:32:04;10.83;;;2.50;;
42192;SDS011;52467;40.114;18.306;2023-05-02T03:34:33;8.25;;;2.10;;
42192;SDS011;52467;40.114;18.306;2023-05-02T03:37:00;7.22;;;2.33;;
42192;SDS011;52467;40.114;18.306;2023-05-02T03:39:29;5.50;;;2.10;;
42192;SDS011;52467;40.114;18.306;2023-05-02T03:41:56;6.63;;;2.20;;
42192;SDS011;52467;40.114;18.306;2023-05-02T03:44:24;8.93;;;1.83;;
42192;SDS011;52467;40.114;18.306;2023-05-02T03:46:51;6.57;;;2.47;;
42192;SDS011;52467;40.114;18.306;2023-05-02T03:49:19;9.25;;;2.53;;
42192;SDS011;52467;40.114;18.306;2023-05-02T03:51:48;4.78;;;2.00;;
42192;SDS011;52467;40.114;18.306;2023-05-02T03:54:21;7.85;;;2.45;;
42192;SDS011;52467;40.114;18.306;2023-05-02T03:56:49;9.60;;;2.17;;
42192;SDS011;52467;40.114;18.306;2023-05-02T03:59:23;11.63;;;2.38;;
42192;SDS011;52467;40.114;18.306;2023-05-02T04:01:51;9.05;;;2.22;;
42192;SDS011;52467;40.114;18.306;2023-05-02T04:04:24;9.15;;;2.80;;
42192;SDS011;52467;40.114;18.306;2023-05-02T04:06:53;8.77;;;2.45;;
42192;SDS011;52467;40.114;18.306;2023-05-02T04:09:21;7.27;;;2.80;;
42192;SDS011;52467;40.114;18.306;2023-05-02T04:11:56;7.88;;;2.47;;
42192;SDS011;52467;40.114;18.306;2023-05-02T04:14:23;7.80;;;2.28;;
42192;SDS011;52467;40.114;18.306;2023-05-02T04:16:52;9.45;;;2.00;;
42192;SDS011;52467;40.114;18.306;2023-05-02T04:19:30;6.50;;;2.05;;
42192;SDS011;52467;40.114;18.306;2023-05-02T04:21:57;8.05;;;2.00;;
42192;SDS011;52467;40.114;18.306;2023-05-02T04:24:25;7.30;;;1.90;;
42192;SDS011;52467;40.114;18.306;2023-05-02T04:26:53;5.75;;;1.90;;
42192;SDS011;52467;40.114;18.306;2023-05-02T04:29:21;7.82;;;1.88;;
42192;SDS011;52467;40.114;18.306;2023-05-02T04:31:48;9.02;;;1.85;;
42192;SDS011;52467;40.114;18.306;2023-05-02T04:34:17;7.07;;;2.47;;
42192;SDS011;52467;40.114;18.306;2023-05-02T04:36:46;7.13;;;2.17;;
42192;SDS011;52467;40.114;18.306;2023-05-02T04:39:19;5.40;;;2.10;;
42192;SDS011;52467;40.114;18.306;2023-05-02T04:41:59;6.05;;;2.50;;
42192;SDS011;52467;40.114;18.306;2023-05-02T04:44:29;7.88;;;2.08;;
42192;SDS011;52467;40.114;18.306;2023-05-02T04:46:57;10.70;;;2.53;;
42192;SDS011;52467;40.114;18.306;2023-05-02T04:49:24;5.72;;;2.17;;
42192;SDS011;52467;40.114;18.306;2023-05-02T04:51:52;7.63;;;2.42;;
42192;SDS011;52467;40.114;18.306;2023-05-02T04:54:21;9.15;;;2.42;;
42192;SDS011;52467;40.114;18.306;2023-05-02T04:56:48;6.63;;;2.53;;
42192;SDS011;52467;40.114;18.306;2023-05-02T04:59:16;8.93;;;2.75;;
42192;SDS011;52467;40.114;18.306;2023-05-02T05:01:43;5.95;;;2.45;;
42192;SDS011;52467;40.114;18.306;2023-05-02T05:04:11;11.15;;;3.00;;
42192;SDS011;52467;40.114;18.306;2023-05-02T05:06:38;10.30;;;2.77;;
42192;SDS011;52467;40.114;18.306;2023-05-02T05:09:07;11.37;;;2.70;;
42192;SDS011;52467;40.114;18.306;2023-05-02T05:11:35;7.97;;;2.80;;
42192;SDS011;52467;40.114;18.306;2023-05-02T05:14:05;8.80;;;2.60;;
42192;SDS011;52467;40.114;18.306;2023-05-02T05:16:36;8.77;;;2.70;;
42192;SDS011;52467;40.114;18.306;2023-05-02T05:19:03;11.45;;;3.38;;
42192;SDS011;52467;40.114;18.306;2023-05-02T05:21:31;11.90;;;3.13;;
42192;SDS011;52467;40.114;18.306;2023-05-02T05:24:00;10.65;;;2.83;;
42192;SDS011;52467;40.114;18.306;2023-05-02T05:26:30;7.18;;;2.78;;
42192;SDS011;52467;40.114;18.306;2023-05-02T05:28:58;7.80;;;2.60;;
42192;SDS011;52467;40.114;18.306;2023-05-02T05:31:30;10.60;;;3.10;;
42192;SDS011;52467;40.114;18.306;2023-05-02T05:33:59;8.63;;;2.80;;
42192;SDS011;52467;40.114;18.306;2023-05-02T05:36:29;10.07;;;2.50;;
42192;SDS011;52467;40.114;18.306;2023-05-02T05:38:57;7.53;;;3.20;;
42192;SDS011;52467;40.114;18.306;2023-05-02T05:41:25;11.65;;;3.10;;
42192;SDS011;52467;40.114;18.306;2023-05-02T05:43:59;11.45;;;2.63;;
42192;SDS011;52467;40.114;18.306;2023-05-02T05:46:28;11.70;;;2.70;;
42192;SDS011;52467;40.114;18.306;2023-05-02T05:48:56;11.43;;;3.00;;
42192;SDS011;52467;40.114;18.306;2023-05-02T05:51:26;9.40;;;3.00;;
42192;SDS011;52467;40.114;18.306;2023-05-02T05:53:56;7.57;;;2.65;;
42192;SDS011;52467;40.114;18.306;2023-05-02T05:56:23;8.80;;;2.30;;
42192;SDS011;52467;40.114;18.306;2023-05-02T05:58:57;7.20;;;2.45;;
42192;SDS011;52467;40.114;18.306;2023-05-02T06:01:25;8.77;;;2.55;;
42192;SDS011;52467;40.114;18.306;2023-05-02T06:03:52;13.13;;;2.63;;
42192;SDS011;52467;40.114;18.306;2023-05-02T06:06:24;11.02;;;2.90;;
42192;SDS011;52467;40.114;18.306;2023-05-02T06:08:53;9.32;;;2.60;;
42192;SDS011;52467;40.114;18.306;2023-05-02T06:11:20;12.80;;;2.90;;
42192;SDS011;52467;40.114;18.306;2023-05-02T06:13:48;8.98;;;2.78;;
42192;SDS011;52467;40.114;18.306;2023-05-02T06:16:15;7.50;;;2.60;;
42192;SDS011;52467;40.114;18.306;2023-05-02T06:18:44;9.90;;;3.00;;
42192;SDS011;52467;40.114;18.306;2023-05-02T06:21:12;9.82;;;2.70;;
42192;SDS011;52467;40.114;18.306;2023-05-02T06:23:40;12.10;;;2.60;;
42192;SDS011;52467;40.114;18.306;2023-05-02T06:26:07;8.23;;;2.20;;
42192;SDS011;52467;40.114;18.306;2023-05-02T06:28:35;7.50;;;2.50;;
42192;SDS011;52467;40.114;18.306;2023-05-02T06:31:04;8.18;;;2.10;;
42192;SDS011;52467;40.114;18.306;2023-05-02T06:33:32;8.93;;;2.08;;
42192;SDS011;52467;40.114;18.306;2023-05-02T06:35:59;6.13;;;1.83;;
42192;SDS011;52467;40.114;18.306;2023-05-02T06:38:27;8.13;;;1.85;;
42192;SDS011;52467;40.114;18.306;2023-05-02T06:40:55;12.77;;;2.50;;
42192;SDS011;52467;40.114;18.306;2023-05-02T06:43:22;10.40;;;2.33;;
42192;SDS011;52467;40.114;18.306;2023-05-02T06:45:53;11.75;;;2.30;;
42192;SDS011;52467;40.114;18.306;2023-05-02T06:48:21;6.47;;;2.10;;
42192;SDS011;52467;40.114;18.306;2023-05-02T06:50:50;6.53;;;2.28;;
42192;SDS011;52467;40.114;18.306;2023-05-02T06:53:18;9.35;;;2.30;;
42192;SDS011;52467;40.114;18.306;2023-05-02T06:55:45;7.88;;;2.35;;
42192;SDS011;52467;40.114;18.306;2023-05-02T06:58:14;7.30;;;2.83;;
42192;SDS011;52467;40.114;18.306;2023-05-02T07:00:41;8.70;;;2.53;;
42192;SDS011;52467;40.114;18.306;2023-05-02T07:03:09;12.65;;;2.60;;
42192;SDS011;52467;40.114;18.306;2023-05-02T07:05:39;6.68;;;2.40;;
42192;SDS011;52467;40.114;18.306;2023-05-02T07:08:06;6.87;;;2.80;;
42192;SDS011;52467;40.114;18.306;2023-05-02T07:10:34;5.63;;;2.55;;
42192;SDS011;52467;40.114;18.306;2023-05-02T07:13:02;5.43;;;2.53;;
42192;SDS011;52467;40.114;18.306;2023-05-02T07:15:29;6.05;;;2.20;;
42192;SDS011;52467;40.114;18.306;2023-05-02T07:17:57;8.02;;;2.40;;
42192;SDS011;52467;40.114;18.306;2023-05-02T07:20:24;7.22;;;2.80;;
42192;SDS011;52467;40.114;18.306;2023-05-02T07:22:51;7.23;;;2.40;;
42192;SDS011;52467;40.114;18.306;2023-05-02T07:25:19;5.70;;;2.30;;
42192;SDS011;52467;40.114;18.306;2023-05-02T07:27:46;5.50;;;2.20;;
42192;SDS011;52467;40.114;18.306;2023-05-02T07:30:14;7.43;;;2.70;;
42192;SDS011;52467;40.114;18.306;2023-05-02T07:32:41;6.10;;;2.63;;
42192;SDS011;52467;40.114;18.306;2023-05-02T07:35:08;9.20;;;2.60;;
42192;SDS011;52467;40.114;18.306;2023-05-02T07:37:36;5.93;;;2.47;;
42192;SDS011;52467;40.114;18.306;2023-05-02T07:40:03;9.25;;;2.30;;
42192;SDS011;52467;40.114;18.306;2023-05-02T07:42:31;9.10;;;2.55;;
42192;SDS011;52467;40.114;18.306;2023-05-02T07:44:59;8.20;;;2.20;;
42192;SDS011;52467;40.114;18.306;2023-05-02T07:47:26;4.80;;;2.40;;
42192;SDS011;52467;40.114;18.306;2023-05-02T07:49:54;5.93;;;2.40;;
42192;SDS011;52467;40.114;18.306;2023-05-02T07:52:22;4.95;;;2.40;;
42192;SDS011;52467;40.114;18.306;2023-05-02T07:54:49;9.27;;;2.60;;
42192;SDS011;52467;40.114;18.306;2023-05-02T07:57:17;8.45;;;2.35;;
42192;SDS011;52467;40.114;18.306;2023-05-02T07:59:44;4.20;;;2.25;;
42192;SDS011;52467;40.114;18.306;2023-05-02T08:02:12;8.05;;;2.53;;
42192;SDS011;52467;40.114;18.306;2023-05-02T08:04:39;8.17;;;2.80;;
42192;SDS011;52467;40.114;18.306;2023-05-02T08:07:07;5.90;;;2.50;;
42192;SDS011;52467;40.114;18.306;2023-05-02T08:09:34;8.63;;;2.80;;
42192;SDS011;52467;40.114;18.306;2023-05-02T08:12:02;6.85;;;2.67;;
42192;SDS011;52467;40.114;18.306;2023-05-02T08:14:29;6.65;;;2.63;;
42192;SDS011;52467;40.114;18.306;2023-05-02T08:16:57;7.82;;;3.17;;
42192;SDS011;52467;40.114;18.306;2023-05-02T08:19:25;12.10;;;3.33;;
42192;SDS011;52467;40.114;18.306;2023-05-02T08:21:53;13.40;;;3.20;;
42192;SDS011;52467;40.114;18.306;2023-05-02T08:24:21;7.65;;;3.05;;
42192;SDS011;52467;40.114;18.306;2023-05-02T08:26:48;11.05;;;3.15;;
42192;SDS011;52467;40.114;18.306;2023-05-02T08:29:16;13.77;;;3.10;;
42192;SDS011;52467;40.114;18.306;2023-05-02T08:31:43;8.52;;;2.78;;
42192;SDS011;52467;40.114;18.306;2023-05-02T08:34:11;9.52;;;3.20;;
42192;SDS011;52467;40.114;18.306;2023-05-02T08:36:38;9.35;;;2.88;;
42192;SDS011;52467;40.114;18.306;2023-05-02T08:39:06;9.00;;;2.83;;
42192;SDS011;52467;40.114;18.306;2023-05-02T08:41:34;6.43;;;3.00;;
42192;SDS011;52467;40.114;18.306;2023-05-02T08:44:02;9.52;;;3.00;;
42192;SDS011;52467;40.114;18.306;2023-05-02T08:46:30;8.52;;;3.03;;
42192;SDS011;52467;40.114;18.306;2023-05-02T08:48:58;5.32;;;2.70;;
42192;SDS011;52467;40.114;18.306;2023-05-02T08:51:26;4.90;;;2.90;;
42192;SDS011;52467;40.114;18.306;2023-05-02T08:53:54;6.00;;;2.88;;
42192;SDS011;52467;40.114;18.306;2023-05-02T08:56:22;7.25;;;3.08;;
42192;SDS011;52467;40.114;18.306;2023-05-02T08:58:50;6.97;;;2.67;;
42192;SDS011;52467;40.114;18.306;2023-05-02T09:01:18;6.97;;;3.42;;
42192;SDS011;52467;40.114;18.306;2023-05-02T09:03:49;8.30;;;3.70;;
42192;SDS011;52467;40.114;18.306;2023-05-02T09:06:19;9.65;;;3.55;;
42192;SDS011;52467;40.114;18.306;2023-05-02T09:08:48;8.02;;;3.65;;
42192;SDS011;52467;40.114;18.306;2023-05-02T09:11:18;10.65;;;4.00;;
42192;SDS011;52467;40.114;18.306;2023-05-02T09:13:47;10.15;;;3.65;;
42192;SDS011;52467;40.114;18.306;2023-05-02T09:16:22;8.63;;;3.28;;
42192;SDS011;52467;40.114;18.306;2023-05-02T09:21:19;5.82;;;3.00;;
42192;SDS011;52467;40.114;18.306;2023-05-02T09:23:55;11.40;;;4.07;;
42192;SDS011;52467;40.114;18.306;2023-05-02T09:26:25;9.52;;;3.53;;
42192;SDS011;52467;40.114;18.306;2023-05-02T09:28:59;6.20;;;3.30;;
42192;SDS011;52467;40.114;18.306;2023-05-02T09:31:29;10.98;;;3.30;;
42192;SDS011;52467;40.114;18.306;2023-05-02T09:34:10;6.93;;;3.20;;
42192;SDS011;52467;40.114;18.306;2023-05-02T09:36:48;7.40;;;2.75;;
42192;SDS011;52467;40.114;18.306;2023-05-02T09:39:18;3.90;;;2.60;;
42192;SDS011;52467;40.114;18.306;2023-05-02T09:41:48;7.28;;;3.03;;
42192;SDS011;52467;40.114;18.306;2023-05-02T09:44:17;8.48;;;3.05;;
42192;SDS011;52467;40.114;18.306;2023-05-02T09:46:46;18.20;;;4.43;;
42192;SDS011;52467;40.114;18.306;2023-05-02T09:49:14;23.30;;;4.65;;
42192;SDS011;52467;40.114;18.306;2023-05-02T09:51:45;9.95;;;3.47;;
42192;SDS011;52467;40.114;18.306;2023-05-02T09:54:14;7.07;;;2.75;;
42192;SDS011;52467;40.114;18.306;2023-05-02T09:57:02;11.40;;;2.50;;
42192;SDS011;52467;40.114;18.306;2023-05-02T09:59:29;8.57;;;2.83;;
42192;SDS011;52467;40.114;18.306;2023-05-02T10:01:57;6.30;;;3.00;;
42192;SDS011;52467;40.114;18.306;2023-05-02T10:04:27;5.82;;;2.53;;
42192;SDS011;52467;40.114;18.306;2023-05-02T10:06:55;6.22;;;2.65;;
42192;SDS011;52467;40.114;18.306;2023-05-02T10:09:24;5.43;;;2.25;;
42192;SDS011;52467;40.114;18.306;2023-05-02T10:11:53;5.03;;;2.50;;
42192;SDS011;52467;40.114;18.306;2023-05-02T10:14:22;5.32;;;2.67;;
42192;SDS011;52467;40.114;18.306;2023-05-02T10:16:59;5.63;;;2.60;;
42192;SDS011;52467;40.114;18.306;2023-05-02T10:22:18;12.33;;;2.97;;
42192;SDS011;52467;40.114;18.306;2023-05-02T10:24:46;6.20;;;2.80;;
42192;SDS011;52467;40.114;18.306;2023-05-02T10:27:15;5.68;;;2.85;;
42192;SDS011;52467;40.114;18.306;2023-05-02T10:29:43;4.55;;;2.40;;
42192;SDS011;52467;40.114;18.306;2023-05-02T10:32:10;5.95;;;2.40;;
42192;SDS011;52467;40.114;18.306;2023-05-02T10:34:39;6.43;;;2.55;;
42192;SDS011;52467;40.114;18.306;2023-05-02T10:37:07;5.90;;;2.55;;
42192;SDS011;52467;40.114;18.306;2023-05-02T10:39:34;3.10;;;2.10;;
42192;SDS011;52467;40.114;18.306;2023-05-02T10:42:02;5.20;;;2.38;;
42192;SDS011;52467;40.114;18.306;2023-05-02T10:44:33;7.13;;;2.60;;
42192;SDS011;52467;40.114;18.306;2023-05-02T10:50:04;5.18;;;2.28;;
42192;SDS011;52467;40.114;18.306;2023-05-02T10:52:34;7.18;;;2.95;;
42192;SDS011;52467;40.114;18.306;2023-05-02T11:02:57;4.82;;;2.45;;
42192;SDS011;52467;40.114;18.306;2023-05-02T11:05:24;3.40;;;2.30;;
42192;SDS011;52467;40.114;18.306;2023-05-02T11:10:42;4.30;;;2.45;;
42192;SDS011;52467;40.114;18.306;2023-05-02T11:13:11;4.25;;;2.75;;
42192;SDS011;52467;40.114;18.306;2023-05-02T11:18:06;2.97;;;2.10;;
42192;SDS011;52467;40.114;18.306;2023-05-02T11:20:35;3.88;;;2.40;;
42192;SDS011;52467;40.114;18.306;2023-05-02T11:25:42;4.70;;;2.60;;
42192;SDS011;52467;40.114;18.306;2023-05-02T11:31:03;4.78;;;2.75;;
42192;SDS011;52467;40.114;18.306;2023-05-02T11:33:31;5.05;;;2.45;;
42192;SDS011;52467;40.114;18.306;2023-05-02T11:35:59;6.65;;;2.97;;
42192;SDS011;52467;40.114;18.306;2023-05-02T11:38:33;4.57;;;2.88;;
42192;SDS011;52467;40.114;18.306;2023-05-02T11:41:04;6.22;;;3.20;;
42192;SDS011;52467;40.114;18.306;2023-05-02T11:43:31;7.90;;;3.30;;
42192;SDS011;52467;40.114;18.306;2023-05-02T11:45:59;4.57;;;3.15;;
42192;SDS011;52467;40.114;18.306;2023-05-02T11:48:27;5.30;;;3.30;;
42192;SDS011;52467;40.114;18.306;2023-05-02T11:50:57;4.65;;;3.20;;
42192;SDS011;52467;40.114;18.306;2023-05-02T11:53:28;5.32;;;2.97;;
42192;SDS011;52467;40.114;18.306;2023-05-02T11:55:59;6.40;;;3.40;;
42192;SDS011;52467;40.114;18.306;2023-05-02T11:58:30;7.25;;;3.72;;
42192;SDS011;52467;40.114;18.306;2023-05-02T12:01:10;6.93;;;3.78;;
42192;SDS011;52467;40.114;18.306;2023-05-02T12:03:38;6.82;;;3.60;;
42192;SDS011;52467;40.114;18.306;2023-05-02T12:08:40;6.72;;;3.85;;
42192;SDS011;52467;40.114;18.306;2023-05-02T12:11:11;9.98;;;4.47;;
42192;SDS011;52467;40.114;18.306;2023-05-02T12:13:46;12.05;;;4.63;;
42192;SDS011;52467;40.114;18.306;2023-05-02T12:16:15;8.70;;;4.25;;
42192;SDS011;52467;40.114;18.306;2023-05-02T12:18:43;9.03;;;4.57;;
42192;SDS011;52467;40.114;18.306;2023-05-02T12:21:11;11.32;;;4.85;;
42192;SDS011;52467;40.114;18.306;2023-05-02T12:23:38;8.23;;;4.32;;
42192;SDS011;52467;40.114;18.306;2023-05-02T12:26:15;8.45;;;4.45;;
42192;SDS011;52467;40.114;18.306;2023-05-02T12:28:48;11.23;;;4.38;;
42192;SDS011;52467;40.114;18.306;2023-05-02T12:31:16;9.52;;;4.82;;
42192;SDS011;52467;40.114;18.306;2023-05-02T12:33:44;7.75;;;4.57;;
42192;SDS011;52467;40.114;18.306;2023-05-02T12:36:19;8.18;;;4.47;;
42192;SDS011;52467;40.114;18.306;2023-05-02T12:38:47;11.65;;;4.32;;
42192;SDS011;52467;40.114;18.306;2023-05-02T12:41:18;6.40;;;4.28;;
42192;SDS011;52467;40.114;18.306;2023-05-02T12:43:55;6.10;;;4.40;;
42192;SDS011;52467;40.114;18.306;2023-05-02T12:46:24;6.57;;;4.03;;
42192;SDS011;52467;40.114;18.306;2023-05-02T12:49:05;9.77;;;4.15;;
42192;SDS011;52467;40.114;18.306;2023-05-02T12:51:38;8.07;;;3.95;;
42192;SDS011;52467;40.114;18.306;2023-05-02T12:54:06;5.00;;;3.63;;
42192;SDS011;52467;40.114;18.306;2023-05-02T12:56:38;5.97;;;3.80;;
42192;SDS011;52467;40.114;18.306;2023-05-02T12:59:06;6.63;;;4.25;;
42192;SDS011;52467;40.114;18.306;2023-05-02T13:01:34;5.88;;;3.85;;
42192;SDS011;52467;40.114;18.306;2023-05-02T13:04:02;9.90;;;3.97;;
42192;SDS011;52467;40.114;18.306;2023-05-02T13:06:30;6.30;;;3.80;;
42192;SDS011;52467;40.114;18.306;2023-05-02T13:08:58;6.30;;;4.13;;
42192;SDS011;52467;40.114;18.306;2023-05-02T13:11:25;7.38;;;3.92;;
42192;SDS011;52467;40.114;18.306;2023-05-02T13:13:54;7.45;;;4.18;;
42192;SDS011;52467;40.114;18.306;2023-05-02T13:16:22;7.68;;;3.97;;
42192;SDS011;52467;40.114;18.306;2023-05-02T13:18:50;7.13;;;4.15;;
42192;SDS011;52467;40.114;18.306;2023-05-02T13:21:17;5.97;;;4.30;;
42192;SDS011;52467;40.114;18.306;2023-05-02T13:23:48;8.68;;;4.65;;
42192;SDS011;52467;40.114;18.306;2023-05-02T13:26:17;7.00;;;4.38;;
42192;SDS011;52467;40.114;18.306;2023-05-02T13:28:45;8.93;;;4.60;;
42192;SDS011;52467;40.114;18.306;2023-05-02T13:31:13;7.55;;;4.43;;
42192;SDS011;52467;40.114;18.306;2023-05-02T13:33:40;7.20;;;4.27;;
42192;SDS011;52467;40.114;18.306;2023-05-02T13:36:08;11.63;;;5.05;;
42192;SDS011;52467;40.114;18.306;2023-05-02T13:38:35;8.05;;;4.53;;
42192;SDS011;52467;40.114;18.306;2023-05-02T13:41:03;13.68;;;4.68;;
42192;SDS011;52467;40.114;18.306;2023-05-02T13:43:31;5.82;;;4.28;;
42192;SDS011;52467;40.114;18.306;2023-05-02T13:45:58;10.63;;;4.53;;
42192;SDS011;52467;40.114;18.306;2023-05-02T13:48:26;10.00;;;4.72;;
42192;SDS011;52467;40.114;18.306;2023-05-02T13:50:54;11.20;;;5.13;;
42192;SDS011;52467;40.114;18.306;2023-05-02T13:53:22;10.13;;;4.82;;
42192;SDS011;52467;40.114;18.306;2023-05-02T13:55:49;8.70;;;4.93;;
42192;SDS011;52467;40.114;18.306;2023-05-02T13:58:17;11.25;;;4.85;;
42192;SDS011;52467;40.114;18.306;2023-05-02T14:00:45;11.10;;;5.50;;
42192;SDS011;52467;40.114;18.306;2023-05-02T14:03:13;12.38;;;6.00;;
42192;SDS011;52467;40.114;18.306;2023-05-02T14:05:40;8.10;;;5.70;;
42192;SDS011;52467;40.114;18.306;2023-05-02T14:08:09;9.60;;;5.30;;
42192;SDS011;52467;40.114;18.306;2023-05-02T14:10:37;9.75;;;5.30;;
42192;SDS011;52467;40.114;18.306;2023-05-02T14:13:05;10.80;;;5.22;;
42192;SDS011;52467;40.114;18.306;2023-05-02T14:15:33;11.47;;;5.63;;
42192;SDS011;52467;40.114;18.306;2023-05-02T14:18:00;14.57;;;5.70;;
42192;SDS011;52467;40.114;18.306;2023-05-02T14:20:29;12.97;;;5.77;;
42192;SDS011;52467;40.114;18.306;2023-05-02T14:22:56;12.57;;;6.13;;
42192;SDS011;52467;40.114;18.306;2023-05-02T14:25:24;8.25;;;4.90;;
42192;SDS011;52467;40.114;18.306;2023-05-02T14:27:52;14.07;;;5.38;;
42192;SDS011;52467;40.114;18.306;2023-05-02T14:30:19;8.47;;;4.97;;
42192;SDS011;52467;40.114;18.306;2023-05-02T14:32:47;11.00;;;5.07;;
42192;SDS011;52467;40.114;18.306;2023-05-02T14:35:15;9.75;;;5.03;;
42192;SDS011;52467;40.114;18.306;2023-05-02T14:37:42;8.25;;;5.65;;
42192;SDS011;52467;40.114;18.306;2023-05-02T14:40:11;8.73;;;4.97;;
42192;SDS011;52467;40.114;18.306;2023-05-02T14:42:40;8.68;;;4.70;;
42192;SDS011;52467;40.114;18.306;2023-05-02T14:45:08;9.63;;;5.65;;
42192;SDS011;52467;40.114;18.306;2023-05-02T14:47:36;7.55;;;4.70;;
42192;SDS011;52467;40.114;18.306;2023-05-02T14:50:04;10.07;;;5.60;;
42192;SDS011;52467;40.114;18.306;2023-05-02T14:52:32;11.15;;;5.60;;
42192;SDS011;52467;40.114;18.306;2023-05-02T14:55:01;9.60;;;5.25;;
42192;SDS011;52467;40.114;18.306;2023-05-02T14:57:28;8.02;;;4.95;;
42192;SDS011;52467;40.114;18.306;2023-05-02T14:59:56;9.35;;;5.05;;
42192;SDS011;52467;40.114;18.306;2023-05-02T15:02:24;8.38;;;4.60;;
42192;SDS011;52467;40.114;18.306;2023-05-02T15:04:52;6.97;;;5.25;;
42192;SDS011;52467;40.114;18.306;2023-05-02T15:07:19;8.80;;;5.25;;
42192;SDS011;52467;40.114;18.306;2023-05-02T15:09:47;7.15;;;5.70;;
42192;SDS011;52467;40.114;18.306;2023-05-02T15:12:15;7.88;;;5.20;;
42192;SDS011;52467;40.114;18.306;2023-05-02T15:14:42;10.45;;;5.70;;
42192;SDS011;52467;40.114;18.306;2023-05-02T15:17:10;12.30;;;5.72;;
42192;SDS011;52467;40.114;18.306;2023-05-02T15:19:38;9.32;;;5.00;;
42192;SDS011;52467;40.114;18.306;2023-05-02T15:22:06;8.53;;;5.20;;
42192;SDS011;52467;40.114;18.306;2023-05-02T15:24:34;7.93;;;5.50;;
42192;SDS011;52467;40.114;18.306;2023-05-02T15:27:02;8.90;;;5.30;;
42192;SDS011;52467;40.114;18.306;2023-05-02T15:29:30;10.50;;;5.40;;
42192;SDS011;52467;40.114;18.306;2023-05-02T15:31:58;11.55;;;5.13;;
42192;SDS011;52467;40.114;18.306;2023-05-02T15:34:26;12.30;;;5.55;;
42192;SDS011;52467;40.114;18.306;2023-05-02T15:36:53;9.90;;;5.53;;
42192;SDS011;52467;40.114;18.306;2023-05-02T15:39:23;9.70;;;5.33;;
42192;SDS011;52467;40.114;18.306;2023-05-02T15:41:53;8.20;;;4.90;;
42192;SDS011;52467;40.114;18.306;2023-05-02T15:44:21;8.57;;;4.78;;
42192;SDS011;52467;40.114;18.306;2023-05-02T15:46:49;7.65;;;4.90;;